Wind From: 11-12-2017 06:00 Until: 12-12-2017 06:00 warning for: Wind Level: Orange info button

Power and phone distribution networks may be disrupted for relatively long periods., Roofs and chimneys can be damaged. , Tree branches may break. , Vehicles can be deported. , Traffic may be disrupted, particularly on secondary roads in forest areas. Limit your trips. , Limit your speed in highway driving, especially if you drive a vehicle or hitch sensitive to wind. , Do not go for walks in forests or along the coast., In town, be vigilant against possible falling objects., Do not work on roofs and do not touch any electrical line fallen on the ground., Store or secure sensitive objects to wind or likely to be damaged., Always install power generators outside buildings. 


Meteo18 Weather Cam more information Meteo18 Weather Cam


Thunder radar more information blitzortung!


Rain radar more information rain snow radar


Visit our other weather sites:

Template documentation
and downloads

And another site



Weather Underground History page Text

Daily Summary for April 16, 2017 Units:  Both    English   Metric
« Previous Day
Next Day »
Daily Weekly Monthly Yearly Custom
  High: Low: Average:
Temperature: 56.5 °F /  13.6 °C 44.1 °F /  6.7 °C 50.7 °F /  10.4 °C
Dew Point: 47.1 °F /  8.4 °C 37.6 °F /  3.1 °C 41.5 °F /  5.3 °C
Humidity: 90 % 53 % 72 %
Wind Speed: 11 mph /  17.7 km/h - 2.5 mph /  4.1 km/h
Wind Gust: 13 mph /  20.9 km/h - -
Wind:- - WNW
Pressure: 30.3 in /  1025.6 hPa 30.2 in /  1023.6 hPa -
Precipitation: 0 in /  0.0 mm    
Historical Graphs
 
 
Tabular Data for April 16, 2017
Time Temperature Dew Point Pressure Wind Wind Speed Wind Gust Humidity Rainfall Rate (Hourly)
00:02 51.8 °F /  11.0 °C 46.2 °F /  7.9 °C 30.2 in /  1023.6 hPa SW 3 mph /  4.8 km/h 7 mph /  11.3 km/h 81 % 0 in /  0.0 mm
00:12 51.8 °F /  11.0 °C 46.2 °F /  7.9 °C 30.2 in /  1023.6 hPa SSW 2 mph /  3.2 km/h 8 mph /  12.9 km/h 81 % 0 in /  0.0 mm
00:17 51.8 °F /  11.0 °C 46.2 °F /  7.9 °C 30.2 in /  1023.6 hPa SW 2 mph /  3.2 km/h 8 mph /  12.9 km/h 81 % 0 in /  0.0 mm
00:22 51.8 °F /  11.0 °C 46.2 °F /  7.9 °C 30.2 in /  1023.6 hPa WSW 4 mph /  6.4 km/h 8 mph /  12.9 km/h 81 % 0 in /  0.0 mm
00:32 51.6 °F /  10.9 °C 46 °F /  7.8 °C 30.2 in /  1023.6 hPa SW 3 mph /  4.8 km/h 7 mph /  11.3 km/h 81 % 0 in /  0.0 mm
00:42 51.6 °F /  10.9 °C 45.7 °F /  7.6 °C 30.2 in /  1023.6 hPa SSW 1 mph /  1.6 km/h 6 mph /  9.7 km/h 80 % 0 in /  0.0 mm
00:47 51.4 °F /  10.8 °C 45.5 °F /  7.5 °C 30.2 in /  1023.6 hPa SSW 1 mph /  1.6 km/h 4 mph /  6.4 km/h 80 % 0 in /  0.0 mm
00:52 51.3 °F /  10.7 °C 45.7 °F /  7.6 °C 30.2 in /  1023.6 hPa SW 2 mph /  3.2 km/h 4 mph /  6.4 km/h 81 % 0 in /  0.0 mm
00:57 51.1 °F /  10.6 °C 45.5 °F /  7.5 °C 30.2 in /  1023.6 hPa Calm   3 mph /  4.8 km/h 81 % 0 in /  0.0 mm
01:02 50.9 °F /  10.5 °C 45.7 °F /  7.6 °C 30.2 in /  1023.9 hPa SE 1 mph /  1.6 km/h 3 mph /  4.8 km/h 82 % 0 in /  0.0 mm
01:07 50.7 °F /  10.4 °C 45.5 °F /  7.5 °C 30.2 in /  1023.6 hPa West 4 mph /  6.4 km/h 4 mph /  6.4 km/h 82 % 0 in /  0.0 mm
01:12 50.7 °F /  10.4 °C 45.7 °F /  7.6 °C 30.2 in /  1023.6 hPa WSW 3 mph /  4.8 km/h 5 mph /  8.0 km/h 83 % 0 in /  0.0 mm
01:17 50.9 °F /  10.5 °C 45.9 °F /  7.7 °C 30.2 in /  1023.6 hPa West 3 mph /  4.8 km/h 6 mph /  9.7 km/h 83 % 0 in /  0.0 mm
01:22 51.1 °F /  10.6 °C 45.9 °F /  7.7 °C 30.2 in /  1023.6 hPa West 3 mph /  4.8 km/h 7 mph /  11.3 km/h 82 % 0 in /  0.0 mm
01:27 51.1 °F /  10.6 °C 45.9 °F /  7.7 °C 30.2 in /  1023.6 hPa West 4 mph /  6.4 km/h 9 mph /  14.5 km/h 82 % 0 in /  0.0 mm
01:32 51.1 °F /  10.6 °C 45.9 °F /  7.7 °C 30.2 in /  1023.6 hPa WSW 7 mph /  11.3 km/h 9 mph /  14.5 km/h 82 % 0 in /  0.0 mm
01:37 51.3 °F /  10.7 °C 46 °F /  7.8 °C 30.2 in /  1023.6 hPa West 3 mph /  4.8 km/h 9 mph /  14.5 km/h 82 % 0 in /  0.0 mm
01:42 51.3 °F /  10.7 °C 46 °F /  7.8 °C 30.2 in /  1023.6 hPa WSW 3 mph /  4.8 km/h 8 mph /  12.9 km/h 82 % 0 in /  0.0 mm
01:47 51.3 °F /  10.7 °C 46 °F /  7.8 °C 30.2 in /  1023.9 hPa West 1 mph /  1.6 km/h 8 mph /  12.9 km/h 82 % 0 in /  0.0 mm
01:52 51.3 °F /  10.7 °C 46 °F /  7.8 °C 30.2 in /  1023.9 hPa WNW 6 mph /  9.7 km/h 6 mph /  9.7 km/h 82 % 0 in /  0.0 mm
01:57 51.4 °F /  10.8 °C 46.2 °F /  7.9 °C 30.2 in /  1023.9 hPa WNW 5 mph /  8.0 km/h 11 mph /  17.7 km/h 82 % 0 in /  0.0 mm
02:02 51.8 °F /  11.0 °C 46.2 °F /  7.9 °C 30.2 in /  1023.9 hPa WNW 11 mph /  17.7 km/h 11 mph /  17.7 km/h 81 % 0 in /  0.0 mm
02:07 51.6 °F /  10.9 °C 46.6 °F /  8.1 °C 30.2 in /  1023.9 hPa West 6 mph /  9.7 km/h 11 mph /  17.7 km/h 83 % 0 in /  0.0 mm
02:12 51.3 °F /  10.7 °C 46.9 °F /  8.3 °C 30.2 in /  1023.9 hPa West 6 mph /  9.7 km/h 11 mph /  17.7 km/h 85 % 0 in /  0.0 mm
02:17 51.1 °F /  10.6 °C 47.1 °F /  8.4 °C 30.2 in /  1023.9 hPa WNW 5 mph /  8.0 km/h 11 mph /  17.7 km/h 86 % 0 in /  0.0 mm
02:22 50.7 °F /  10.4 °C 46.8 °F /  8.2 °C 30.2 in /  1023.9 hPa WNW 4 mph /  6.4 km/h 8 mph /  12.9 km/h 86 % 0 in /  0.0 mm
02:27 50.7 °F /  10.4 °C 46.9 °F /  8.3 °C 30.2 in /  1023.9 hPa West 5 mph /  8.0 km/h 8 mph /  12.9 km/h 87 % 0 in /  0.0 mm
02:32 50.7 °F /  10.4 °C 46.9 °F /  8.3 °C 30.2 in /  1023.9 hPa NW 4 mph /  6.4 km/h 7 mph /  11.3 km/h 87 % 0 in /  0.0 mm
02:37 50.7 °F /  10.4 °C 46.8 °F /  8.2 °C 30.2 in /  1023.9 hPa WNW 3 mph /  4.8 km/h 8 mph /  12.9 km/h 86 % 0 in /  0.0 mm
02:42 50.7 °F /  10.4 °C 46.8 °F /  8.2 °C 30.2 in /  1023.9 hPa WSW 5 mph /  8.0 km/h 8 mph /  12.9 km/h 86 % 0 in /  0.0 mm
02:47 50.7 °F /  10.4 °C 46.8 °F /  8.2 °C 30.2 in /  1023.9 hPa West 4 mph /  6.4 km/h 10 mph /  16.1 km/h 86 % 0 in /  0.0 mm
02:57 50.5 °F /  10.3 °C 46.8 °F /  8.2 °C 30.2 in /  1023.9 hPa WNW 3 mph /  4.8 km/h 10 mph /  16.1 km/h 87 % 0 in /  0.0 mm
03:02 50.4 °F /  10.2 °C 46.6 °F /  8.1 °C 30.2 in /  1023.9 hPa WNW 2 mph /  3.2 km/h 9 mph /  14.5 km/h 87 % 0 in /  0.0 mm
03:12 50.4 °F /  10.2 °C 46.9 °F /  8.3 °C 30.2 in /  1023.9 hPa West 1 mph /  1.6 km/h 6 mph /  9.7 km/h 88 % 0 in /  0.0 mm
03:17 50.4 °F /  10.2 °C 46.9 °F /  8.3 °C 30.2 in /  1023.9 hPa WNW 1 mph /  1.6 km/h 4 mph /  6.4 km/h 88 % 0 in /  0.0 mm
03:22 50.4 °F /  10.2 °C 46.6 °F /  8.1 °C 30.2 in /  1023.9 hPa West 3 mph /  4.8 km/h 6 mph /  9.7 km/h 87 % 0 in /  0.0 mm
03:37 50.4 °F /  10.2 °C 46.6 °F /  8.1 °C 30.2 in /  1023.9 hPa WNW 3 mph /  4.8 km/h 8 mph /  12.9 km/h 87 % 0 in /  0.0 mm
03:42 50.4 °F /  10.2 °C 46.6 °F /  8.1 °C 30.2 in /  1023.9 hPa WNW 6 mph /  9.7 km/h 6 mph /  9.7 km/h 87 % 0 in /  0.0 mm
03:47 50.4 °F /  10.2 °C 46.6 °F /  8.1 °C 30.2 in /  1023.6 hPa WNW 1 mph /  1.6 km/h 6 mph /  9.7 km/h 87 % 0 in /  0.0 mm
03:52 50.4 °F /  10.2 °C 46.6 °F /  8.1 °C 30.2 in /  1023.6 hPa NW 2 mph /  3.2 km/h 6 mph /  9.7 km/h 87 % 0 in /  0.0 mm
03:57 50.2 °F /  10.1 °C 46.8 °F /  8.2 °C 30.2 in /  1023.6 hPa NW 3 mph /  4.8 km/h 6 mph /  9.7 km/h 88 % 0 in /  0.0 mm
04:02 50.2 °F /  10.1 °C 46.8 °F /  8.2 °C 30.2 in /  1023.9 hPa NW 3 mph /  4.8 km/h 6 mph /  9.7 km/h 88 % 0 in /  0.0 mm
04:12 49.8 °F /  9.9 °C 46.4 °F /  8.0 °C 30.2 in /  1023.6 hPa WNW 1 mph /  1.6 km/h 6 mph /  9.7 km/h 88 % 0 in /  0.0 mm
04:17 49.8 °F /  9.9 °C 46.8 °F /  8.2 °C 30.2 in /  1023.9 hPa Calm   5 mph /  8.0 km/h 89 % 0 in /  0.0 mm
04:22 49.6 °F /  9.8 °C 46.6 °F /  8.1 °C 30.2 in /  1023.6 hPa WNW 1 mph /  1.6 km/h 5 mph /  8.0 km/h 89 % 0 in /  0.0 mm
04:27 49.6 °F /  9.8 °C 46.8 °F /  8.2 °C 30.2 in /  1023.9 hPa West 2 mph /  3.2 km/h 5 mph /  8.0 km/h 90 % 0 in /  0.0 mm
04:32 49.5 °F /  9.7 °C 46.6 °F /  8.1 °C 30.2 in /  1023.9 hPa WNW 2 mph /  3.2 km/h 5 mph /  8.0 km/h 90 % 0 in /  0.0 mm
04:37 49.5 °F /  9.7 °C 46.6 °F /  8.1 °C 30.2 in /  1023.9 hPa West 1 mph /  1.6 km/h 5 mph /  8.0 km/h 90 % 0 in /  0.0 mm
04:42 49.5 °F /  9.7 °C 46.6 °F /  8.1 °C 30.2 in /  1023.9 hPa NW 2 mph /  3.2 km/h 10 mph /  16.1 km/h 90 % 0 in /  0.0 mm
04:47 49.3 °F /  9.6 °C 46.4 °F /  8.0 °C 30.2 in /  1023.9 hPa NW 5 mph /  8.0 km/h 10 mph /  16.1 km/h 90 % 0 in /  0.0 mm
04:52 49.3 °F /  9.6 °C 46.4 °F /  8.0 °C 30.2 in /  1023.9 hPa NNW 5 mph /  8.0 km/h 10 mph /  16.1 km/h 90 % 0 in /  0.0 mm
04:57 48.6 °F /  9.2 °C 44.2 °F /  6.8 °C 30.3 in /  1024.3 hPa NNW 6 mph /  9.7 km/h 10 mph /  16.1 km/h 85 % 0 in /  0.0 mm
05:02 48.4 °F /  9.1 °C 43.5 °F /  6.4 °C 30.2 in /  1023.9 hPa NNW 2 mph /  3.2 km/h 9 mph /  14.5 km/h 83 % 0 in /  0.0 mm
05:12 48.2 °F /  9.0 °C 43 °F /  6.1 °C 30.3 in /  1024.3 hPa Calm   9 mph /  14.5 km/h 82 % 0 in /  0.0 mm
05:17 48.2 °F /  9.0 °C 43 °F /  6.1 °C 30.2 in /  1023.9 hPa North 1 mph /  1.6 km/h 5 mph /  8.0 km/h 82 % 0 in /  0.0 mm
05:22 48 °F /  8.9 °C 42.8 °F /  6.0 °C 30.3 in /  1024.3 hPa Calm   5 mph /  8.0 km/h 82 % 0 in /  0.0 mm
05:27 48 °F /  8.9 °C 42.8 °F /  6.0 °C 30.3 in /  1024.3 hPa Calm   4 mph /  6.4 km/h 82 % 0 in /  0.0 mm
05:32 47.8 °F /  8.8 °C 42.6 °F /  5.9 °C 30.3 in /  1024.3 hPa NW 2 mph /  3.2 km/h 3 mph /  4.8 km/h 82 % 0 in /  0.0 mm
05:42 47.8 °F /  8.8 °C 42.6 °F /  5.9 °C 30.2 in /  1023.9 hPa WNW 2 mph /  3.2 km/h 3 mph /  4.8 km/h 82 % 0 in /  0.0 mm
05:47 47.8 °F /  8.8 °C 43 °F /  6.1 °C 30.2 in /  1023.9 hPa WNW 1 mph /  1.6 km/h 4 mph /  6.4 km/h 83 % 0 in /  0.0 mm
05:52 47.8 °F /  8.8 °C 43.2 °F /  6.2 °C 30.2 in /  1023.9 hPa NNW 2 mph /  3.2 km/h 4 mph /  6.4 km/h 84 % 0 in /  0.0 mm
05:57 47.8 °F /  8.8 °C 43.2 °F /  6.2 °C 30.2 in /  1023.9 hPa WNW 1 mph /  1.6 km/h 3 mph /  4.8 km/h 84 % 0 in /  0.0 mm
06:02 47.7 °F /  8.7 °C 43 °F /  6.1 °C 30.2 in /  1023.9 hPa Calm   5 mph /  8.0 km/h 84 % 0 in /  0.0 mm
06:12 47.5 °F /  8.6 °C 43.2 °F /  6.2 °C 30.2 in /  1023.9 hPa WNW 1 mph /  1.6 km/h 5 mph /  8.0 km/h 85 % 0 in /  0.0 mm
06:17 47.1 °F /  8.4 °C 43.2 °F /  6.2 °C 30.2 in /  1023.9 hPa Calm   3 mph /  4.8 km/h 86 % 0 in /  0.0 mm
06:22 46.9 °F /  8.3 °C 43 °F /  6.1 °C 30.3 in /  1024.3 hPa NW 1 mph /  1.6 km/h 3 mph /  4.8 km/h 86 % 0 in /  0.0 mm
06:27 46.9 °F /  8.3 °C 43.3 °F /  6.3 °C 30.3 in /  1024.3 hPa WNW 1 mph /  1.6 km/h 2 mph /  3.2 km/h 87 % 0 in /  0.0 mm
06:32 46.9 °F /  8.3 °C 43.3 °F /  6.3 °C 30.3 in /  1024.3 hPa WNW 1 mph /  1.6 km/h 2 mph /  3.2 km/h 87 % 0 in /  0.0 mm
06:42 46.9 °F /  8.3 °C 43.3 °F /  6.3 °C 30.3 in /  1024.3 hPa WNW 1 mph /  1.6 km/h 4 mph /  6.4 km/h 87 % 0 in /  0.0 mm
06:47 46.8 °F /  8.2 °C 43.2 °F /  6.2 °C 30.3 in /  1024.3 hPa West 1 mph /  1.6 km/h 3 mph /  4.8 km/h 87 % 0 in /  0.0 mm
06:52 46.8 °F /  8.2 °C 43.2 °F /  6.2 °C 30.3 in /  1024.3 hPa WNW 1 mph /  1.6 km/h 3 mph /  4.8 km/h 87 % 0 in /  0.0 mm
07:02 46.6 °F /  8.1 °C 43.2 °F /  6.2 °C 30.3 in /  1024.3 hPa Calm   3 mph /  4.8 km/h 88 % 0 in /  0.0 mm
07:12 46.6 °F /  8.1 °C 43.2 °F /  6.2 °C 30.3 in /  1024.3 hPa Calm   3 mph /  4.8 km/h 88 % 0 in /  0.0 mm
07:17 46.6 °F /  8.1 °C 43.2 °F /  6.2 °C 30.3 in /  1024.6 hPa WNW 1 mph /  1.6 km/h 2 mph /  3.2 km/h 88 % 0 in /  0.0 mm
07:27 46.6 °F /  8.1 °C 43.2 °F /  6.2 °C 30.3 in /  1024.6 hPa NW 2 mph /  3.2 km/h 3 mph /  4.8 km/h 88 % 0 in /  0.0 mm
07:32 46.8 °F /  8.2 °C 43.2 °F /  6.2 °C 30.3 in /  1024.6 hPa WNW 2 mph /  3.2 km/h 3 mph /  4.8 km/h 87 % 0 in /  0.0 mm
07:42 46.9 °F /  8.3 °C 43 °F /  6.1 °C 30.3 in /  1024.9 hPa WNW 1 mph /  1.6 km/h 4 mph /  6.4 km/h 86 % 0 in /  0.0 mm
07:52 46.9 °F /  8.3 °C 42.6 °F /  5.9 °C 30.3 in /  1024.9 hPa NW 1 mph /  1.6 km/h 5 mph /  8.0 km/h 85 % 0 in /  0.0 mm
07:57 47.1 °F /  8.4 °C 42.8 °F /  6.0 °C 30.3 in /  1024.9 hPa Calm   5 mph /  8.0 km/h 85 % 0 in /  0.0 mm
08:02 47.1 °F /  8.4 °C 42.6 °F /  5.9 °C 30.3 in /  1024.9 hPa Calm   3 mph /  4.8 km/h 84 % 0 in /  0.0 mm
08:17 47.3 °F /  8.5 °C 42.4 °F /  5.8 °C 30.3 in /  1024.9 hPa Calm   4 mph /  6.4 km/h 83 % 0 in /  0.0 mm
08:22 47.5 °F /  8.6 °C 42.3 °F /  5.7 °C 30.3 in /  1024.9 hPa WNW 1 mph /  1.6 km/h 2 mph /  3.2 km/h 82 % 0 in /  0.0 mm
08:32 47.5 °F /  8.6 °C 42.3 °F /  5.7 °C 30.3 in /  1024.9 hPa Calm   2 mph /  3.2 km/h 82 % 0 in /  0.0 mm
08:42 47.5 °F /  8.6 °C 41.9 °F /  5.5 °C 30.3 in /  1024.9 hPa NW 1 mph /  1.6 km/h 3 mph /  4.8 km/h 81 % 0 in /  0.0 mm
08:47 47.7 °F /  8.7 °C 41.7 °F /  5.4 °C 30.3 in /  1024.9 hPa NW 2 mph /  3.2 km/h 4 mph /  6.4 km/h 80 % 0 in /  0.0 mm
08:52 47.7 °F /  8.7 °C 41.5 °F /  5.3 °C 30.3 in /  1024.9 hPa NW 1 mph /  1.6 km/h 4 mph /  6.4 km/h 79 % 0 in /  0.0 mm
08:57 47.7 °F /  8.7 °C 41.5 °F /  5.3 °C 30.3 in /  1024.9 hPa NNW 1 mph /  1.6 km/h 4 mph /  6.4 km/h 79 % 0 in /  0.0 mm
09:02 47.8 °F /  8.8 °C 41.9 °F /  5.5 °C 30.3 in /  1025.3 hPa WNW 1 mph /  1.6 km/h 4 mph /  6.4 km/h 80 % 0 in /  0.0 mm
09:12 47.8 °F /  8.8 °C 41.9 °F /  5.5 °C 30.3 in /  1025.3 hPa WNW 3 mph /  4.8 km/h 4 mph /  6.4 km/h 80 % 0 in /  0.0 mm
09:17 47.8 °F /  8.8 °C 42.3 °F /  5.7 °C 30.3 in /  1025.3 hPa Calm   4 mph /  6.4 km/h 81 % 0 in /  0.0 mm
09:22 47.8 °F /  8.8 °C 42.3 °F /  5.7 °C 30.3 in /  1025.3 hPa Calm   4 mph /  6.4 km/h 81 % 0 in /  0.0 mm
09:27 47.8 °F /  8.8 °C 42.3 °F /  5.7 °C 30.3 in /  1024.9 hPa WNW 2 mph /  3.2 km/h 3 mph /  4.8 km/h 81 % 0 in /  0.0 mm
09:32 47.8 °F /  8.8 °C 42.3 °F /  5.7 °C 30.3 in /  1025.3 hPa WNW 2 mph /  3.2 km/h 4 mph /  6.4 km/h 81 % 0 in /  0.0 mm
09:42 48 °F /  8.9 °C 42.4 °F /  5.8 °C 30.3 in /  1025.3 hPa Calm   4 mph /  6.4 km/h 81 % 0 in /  0.0 mm
09:52 48 °F /  8.9 °C 42.4 °F /  5.8 °C 30.3 in /  1025.3 hPa NNW 1 mph /  1.6 km/h 5 mph /  8.0 km/h 81 % 0 in /  0.0 mm
09:57 48 °F /  8.9 °C 42.8 °F /  6.0 °C 30.3 in /  1025.3 hPa Calm   5 mph /  8.0 km/h 82 % 0 in /  0.0 mm
10:12 48.4 °F /  9.1 °C 43.2 °F /  6.2 °C 30.3 in /  1025.3 hPa West 2 mph /  3.2 km/h 6 mph /  9.7 km/h 82 % 0 in /  0.0 mm
10:17 48 °F /  8.9 °C 43.2 °F /  6.2 °C 30.3 in /  1025.3 hPa Calm   4 mph /  6.4 km/h 83 % 0 in /  0.0 mm
10:22 48 °F /  8.9 °C 43.2 °F /  6.2 °C 30.3 in /  1025.3 hPa WNW 2 mph /  3.2 km/h 5 mph /  8.0 km/h 83 % 0 in /  0.0 mm
10:32 48 °F /  8.9 °C 43.2 °F /  6.2 °C 30.3 in /  1025.3 hPa WNW 1 mph /  1.6 km/h 5 mph /  8.0 km/h 83 % 0 in /  0.0 mm
10:42 48 °F /  8.9 °C 43.3 °F /  6.3 °C 30.3 in /  1025.3 hPa West 2 mph /  3.2 km/h 5 mph /  8.0 km/h 84 % 0 in /  0.0 mm
10:52 48.2 °F /  9.0 °C 43.5 °F /  6.4 °C 30.3 in /  1025.3 hPa WSW 1 mph /  1.6 km/h 5 mph /  8.0 km/h 84 % 0 in /  0.0 mm
10:57 48.7 °F /  9.3 °C 44.4 °F /  6.9 °C 30.3 in /  1025.3 hPa WNW 1 mph /  1.6 km/h 4 mph /  6.4 km/h 85 % 0 in /  0.0 mm
11:02 48.9 °F /  9.4 °C 44.2 °F /  6.8 °C 30.3 in /  1025.3 hPa NW 1 mph /  1.6 km/h 4 mph /  6.4 km/h 84 % 0 in /  0.0 mm
11:12 49.3 °F /  9.6 °C 44.1 °F /  6.7 °C 30.3 in /  1025.6 hPa WNW 4 mph /  6.4 km/h 6 mph /  9.7 km/h 82 % 0 in /  0.0 mm
11:17 49.5 °F /  9.7 °C 44.2 °F /  6.8 °C 30.3 in /  1025.6 hPa WNW 1 mph /  1.6 km/h 6 mph /  9.7 km/h 82 % 0 in /  0.0 mm
11:22 49.6 °F /  9.8 °C 43.3 °F /  6.3 °C 30.3 in /  1025.6 hPa WNW 6 mph /  9.7 km/h 6 mph /  9.7 km/h 79 % 0 in /  0.0 mm
11:27 49.6 °F /  9.8 °C 43 °F /  6.1 °C 30.3 in /  1025.6 hPa WNW 1 mph /  1.6 km/h 9 mph /  14.5 km/h 78 % 0 in /  0.0 mm
11:32 49.8 °F /  9.9 °C 43 °F /  6.1 °C 30.3 in /  1025.6 hPa WNW 4 mph /  6.4 km/h 9 mph /  14.5 km/h 77 % 0 in /  0.0 mm
11:37 50 °F /  10.0 °C 42.4 °F /  5.8 °C 30.3 in /  1025.6 hPa NNW 4 mph /  6.4 km/h 9 mph /  14.5 km/h 75 % 0 in /  0.0 mm
11:47 50.4 °F /  10.2 °C 41.7 °F /  5.4 °C 30.3 in /  1025.3 hPa WNW 1 mph /  1.6 km/h 9 mph /  14.5 km/h 72 % 0 in /  0.0 mm
11:52 51.1 °F /  10.6 °C 42.8 °F /  6.0 °C 30.3 in /  1025.3 hPa WNW 2 mph /  3.2 km/h 6 mph /  9.7 km/h 73 % 0 in /  0.0 mm
11:57 51.3 °F /  10.7 °C 41.4 °F /  5.2 °C 30.3 in /  1025.3 hPa NW 3 mph /  4.8 km/h 6 mph /  9.7 km/h 69 % 0 in /  0.0 mm
12:02 51.4 °F /  10.8 °C 41.5 °F /  5.3 °C 30.3 in /  1025.3 hPa NNW 3 mph /  4.8 km/h 8 mph /  12.9 km/h 69 % 0 in /  0.0 mm
12:07 51.6 °F /  10.9 °C 42.1 °F /  5.6 °C 30.3 in /  1025.3 hPa WNW 6 mph /  9.7 km/h 10 mph /  16.1 km/h 70 % 0 in /  0.0 mm
12:12 51.4 °F /  10.8 °C 41.2 °F /  5.1 °C 30.3 in /  1025.6 hPa WNW 7 mph /  11.3 km/h 12 mph /  19.3 km/h 68 % 0 in /  0.0 mm
12:17 51.3 °F /  10.7 °C 41.4 °F /  5.2 °C 30.3 in /  1025.6 hPa WNW 5 mph /  8.0 km/h 12 mph /  19.3 km/h 69 % 0 in /  0.0 mm
12:22 51.1 °F /  10.6 °C 41.2 °F /  5.1 °C 30.3 in /  1025.6 hPa WNW 4 mph /  6.4 km/h 12 mph /  19.3 km/h 69 % 0 in /  0.0 mm
12:32 51.3 °F /  10.7 °C 41 °F /  5.0 °C 30.3 in /  1025.3 hPa Calm   11 mph /  17.7 km/h 68 % 0 in /  0.0 mm
12:42 51.6 °F /  10.9 °C 39.9 °F /  4.4 °C 30.3 in /  1025.3 hPa WNW 5 mph /  8.0 km/h 9 mph /  14.5 km/h 64 % 0 in /  0.0 mm
12:47 51.4 °F /  10.8 °C 39.7 °F /  4.3 °C 30.3 in /  1025.3 hPa West 2 mph /  3.2 km/h 11 mph /  17.7 km/h 64 % 0 in /  0.0 mm
12:52 51.4 °F /  10.8 °C 38.8 °F /  3.8 °C 30.3 in /  1025.3 hPa WNW 4 mph /  6.4 km/h 11 mph /  17.7 km/h 62 % 0 in /  0.0 mm
12:57 52.3 °F /  11.3 °C 40.5 °F /  4.7 °C 30.3 in /  1025.3 hPa WNW 1 mph /  1.6 km/h 11 mph /  17.7 km/h 64 % 0 in /  0.0 mm
13:02 52.9 °F /  11.6 °C 39.4 °F /  4.1 °C 30.3 in /  1025.3 hPa NW 8 mph /  12.9 km/h 9 mph /  14.5 km/h 60 % 0 in /  0.0 mm
13:07 52.2 °F /  11.2 °C 39.2 °F /  4.0 °C 30.3 in /  1025.3 hPa WNW 10 mph /  16.1 km/h 12 mph /  19.3 km/h 61 % 0 in /  0.0 mm
13:12 52 °F /  11.1 °C 39.7 °F /  4.3 °C 30.3 in /  1025.3 hPa WNW 8 mph /  12.9 km/h 13 mph /  20.9 km/h 63 % 0 in /  0.0 mm
13:17 53.1 °F /  11.7 °C 40.5 °F /  4.7 °C 30.3 in /  1025.3 hPa West 2 mph /  3.2 km/h 13 mph /  20.9 km/h 62 % 0 in /  0.0 mm
13:22 53.8 °F /  12.1 °C 40.6 °F /  4.8 °C 30.3 in /  1025.3 hPa NW 1 mph /  1.6 km/h 13 mph /  20.9 km/h 61 % 0 in /  0.0 mm
13:27 54.1 °F /  12.3 °C 40.1 °F /  4.5 °C 30.3 in /  1024.9 hPa NNE 5 mph /  8.0 km/h 13 mph /  20.9 km/h 59 % 0 in /  0.0 mm
13:32 53.8 °F /  12.1 °C 39.7 °F /  4.3 °C 30.3 in /  1024.9 hPa WNW 7 mph /  11.3 km/h 11 mph /  17.7 km/h 59 % 0 in /  0.0 mm
13:37 53.2 °F /  11.8 °C 37.9 °F /  3.3 °C 30.3 in /  1024.9 hPa WNW 6 mph /  9.7 km/h 11 mph /  17.7 km/h 56 % 0 in /  0.0 mm
13:42 53.1 °F /  11.7 °C 39.9 °F /  4.4 °C 30.3 in /  1025.3 hPa West 2 mph /  3.2 km/h 11 mph /  17.7 km/h 61 % 0 in /  0.0 mm
13:47 53.2 °F /  11.8 °C 39.2 °F /  4.0 °C 30.3 in /  1025.3 hPa WNW 6 mph /  9.7 km/h 11 mph /  17.7 km/h 59 % 0 in /  0.0 mm
13:52 53.1 °F /  11.7 °C 38.7 °F /  3.7 °C 30.3 in /  1025.3 hPa WNW 5 mph /  8.0 km/h 11 mph /  17.7 km/h 58 % 0 in /  0.0 mm
13:57 53.2 °F /  11.8 °C 38.8 °F /  3.8 °C 30.3 in /  1024.9 hPa West 5 mph /  8.0 km/h 10 mph /  16.1 km/h 58 % 0 in /  0.0 mm
14:02 53.2 °F /  11.8 °C 39.2 °F /  4.0 °C 30.3 in /  1024.9 hPa WNW 7 mph /  11.3 km/h 10 mph /  16.1 km/h 59 % 0 in /  0.0 mm
14:12 54.3 °F /  12.4 °C 41.2 °F /  5.1 °C 30.3 in /  1024.9 hPa North 4 mph /  6.4 km/h 10 mph /  16.1 km/h 61 % 0 in /  0.0 mm
14:17 55 °F /  12.8 °C 39.6 °F /  4.2 °C 30.3 in /  1024.9 hPa WNW 4 mph /  6.4 km/h 10 mph /  16.1 km/h 56 % 0 in /  0.0 mm
14:22 54.7 °F /  12.6 °C 38.8 °F /  3.8 °C 30.3 in /  1024.9 hPa NNW 4 mph /  6.4 km/h 8 mph /  12.9 km/h 55 % 0 in /  0.0 mm
14:27 54.1 °F /  12.3 °C 38.8 °F /  3.8 °C 30.3 in /  1024.9 hPa West 3 mph /  4.8 km/h 8 mph /  12.9 km/h 56 % 0 in /  0.0 mm
14:32 53.8 °F /  12.1 °C 39.7 °F /  4.3 °C 30.3 in /  1024.9 hPa NW 5 mph /  8.0 km/h 9 mph /  14.5 km/h 59 % 0 in /  0.0 mm
14:37 53.8 °F /  12.1 °C 39.4 °F /  4.1 °C 30.3 in /  1024.9 hPa WNW 1 mph /  1.6 km/h 10 mph /  16.1 km/h 58 % 0 in /  0.0 mm
14:42 54 °F /  12.2 °C 39.9 °F /  4.4 °C 30.3 in /  1024.9 hPa WNW 2 mph /  3.2 km/h 10 mph /  16.1 km/h 59 % 0 in /  0.0 mm
14:47 54 °F /  12.2 °C 39 °F /  3.9 °C 30.3 in /  1024.9 hPa Calm   10 mph /  16.1 km/h 57 % 0 in /  0.0 mm
14:52 54.1 °F /  12.3 °C 38.8 °F /  3.8 °C 30.3 in /  1024.9 hPa North 4 mph /  6.4 km/h 7 mph /  11.3 km/h 56 % 0 in /  0.0 mm
14:57 54.1 °F /  12.3 °C 39.7 °F /  4.3 °C 30.3 in /  1024.9 hPa NW 6 mph /  9.7 km/h 6 mph /  9.7 km/h 58 % 0 in /  0.0 mm
15:02 54 °F /  12.2 °C 39.6 °F /  4.2 °C 30.3 in /  1024.9 hPa WNW 8 mph /  12.9 km/h 9 mph /  14.5 km/h 58 % 0 in /  0.0 mm
15:07 54 °F /  12.2 °C 39.9 °F /  4.4 °C 30.3 in /  1024.9 hPa West 2 mph /  3.2 km/h 10 mph /  16.1 km/h 59 % 0 in /  0.0 mm
15:12 54.1 °F /  12.3 °C 40.1 °F /  4.5 °C 30.3 in /  1024.9 hPa West 6 mph /  9.7 km/h 10 mph /  16.1 km/h 59 % 0 in /  0.0 mm
15:17 54.3 °F /  12.4 °C 40.3 °F /  4.6 °C 30.3 in /  1024.6 hPa NW 1 mph /  1.6 km/h 10 mph /  16.1 km/h 59 % 0 in /  0.0 mm
15:22 54.9 °F /  12.7 °C 39.9 °F /  4.4 °C 30.3 in /  1024.6 hPa WNW 4 mph /  6.4 km/h 10 mph /  16.1 km/h 57 % 0 in /  0.0 mm
15:32 54.7 °F /  12.6 °C 39.4 °F /  4.1 °C 30.3 in /  1024.6 hPa West 4 mph /  6.4 km/h 7 mph /  11.3 km/h 56 % 0 in /  0.0 mm
15:37 54.7 °F /  12.6 °C 40.3 °F /  4.6 °C 30.3 in /  1024.6 hPa NNE 2 mph /  3.2 km/h 11 mph /  17.7 km/h 58 % 0 in /  0.0 mm
15:47 55 °F /  12.8 °C 39.2 °F /  4.0 °C 30.3 in /  1024.6 hPa NNW 6 mph /  9.7 km/h 10 mph /  16.1 km/h 55 % 0 in /  0.0 mm
15:52 54.5 °F /  12.5 °C 39.2 °F /  4.0 °C 30.3 in /  1024.6 hPa WNW 4 mph /  6.4 km/h 9 mph /  14.5 km/h 56 % 0 in /  0.0 mm
15:57 54.5 °F /  12.5 °C 39.2 °F /  4.0 °C 30.3 in /  1024.6 hPa WNW 3 mph /  4.8 km/h 9 mph /  14.5 km/h 56 % 0 in /  0.0 mm
16:02 54.1 °F /  12.3 °C 39.7 °F /  4.3 °C 30.3 in /  1024.6 hPa North 2 mph /  3.2 km/h 8 mph /  12.9 km/h 58 % 0 in /  0.0 mm
16:12 54.9 °F /  12.7 °C 39.9 °F /  4.4 °C 30.3 in /  1024.3 hPa West 6 mph /  9.7 km/h 8 mph /  12.9 km/h 57 % 0 in /  0.0 mm
16:17 55.4 °F /  13.0 °C 39.9 °F /  4.4 °C 30.3 in /  1024.3 hPa NW 5 mph /  8.0 km/h 10 mph /  16.1 km/h 56 % 0 in /  0.0 mm
16:22 55.6 °F /  13.1 °C 39.7 °F /  4.3 °C 30.3 in /  1024.3 hPa NW 4 mph /  6.4 km/h 10 mph /  16.1 km/h 55 % 0 in /  0.0 mm
16:27 55.6 °F /  13.1 °C 40.6 °F /  4.8 °C 30.3 in /  1024.3 hPa NNW 5 mph /  8.0 km/h 9 mph /  14.5 km/h 57 % 0 in /  0.0 mm
16:32 55.2 °F /  12.9 °C 40.3 °F /  4.6 °C 30.3 in /  1024.3 hPa NNW 1 mph /  1.6 km/h 10 mph /  16.1 km/h 57 % 0 in /  0.0 mm
16:37 55.2 °F /  12.9 °C 39.7 °F /  4.3 °C 30.3 in /  1024.3 hPa WNW 6 mph /  9.7 km/h 10 mph /  16.1 km/h 56 % 0 in /  0.0 mm
16:42 55.8 °F /  13.2 °C 40.8 °F /  4.9 °C 30.3 in /  1024.3 hPa WNW 3 mph /  4.8 km/h 10 mph /  16.1 km/h 57 % 0 in /  0.0 mm
16:47 55.4 °F /  13.0 °C 39.9 °F /  4.4 °C 30.3 in /  1024.3 hPa NW 2 mph /  3.2 km/h 9 mph /  14.5 km/h 56 % 0 in /  0.0 mm
16:52 55 °F /  12.8 °C 39.6 °F /  4.2 °C 30.3 in /  1024.3 hPa NNW 6 mph /  9.7 km/h 8 mph /  12.9 km/h 56 % 0 in /  0.0 mm
16:57 55 °F /  12.8 °C 39.2 °F /  4.0 °C 30.3 in /  1024.3 hPa North 4 mph /  6.4 km/h 7 mph /  11.3 km/h 55 % 0 in /  0.0 mm
17:02 55 °F /  12.8 °C 40.1 °F /  4.5 °C 30.3 in /  1024.3 hPa NNW 6 mph /  9.7 km/h 7 mph /  11.3 km/h 57 % 0 in /  0.0 mm
17:07 54.9 °F /  12.7 °C 39.4 °F /  4.1 °C 30.3 in /  1024.3 hPa NNW 5 mph /  8.0 km/h 7 mph /  11.3 km/h 56 % 0 in /  0.0 mm
17:12 54.7 °F /  12.6 °C 39.7 °F /  4.3 °C 30.2 in /  1023.9 hPa North 8 mph /  12.9 km/h 10 mph /  16.1 km/h 57 % 0 in /  0.0 mm
17:17 55 °F /  12.8 °C 39.6 °F /  4.2 °C 30.2 in /  1023.9 hPa NW 6 mph /  9.7 km/h 11 mph /  17.7 km/h 56 % 0 in /  0.0 mm
17:22 55 °F /  12.8 °C 39.6 °F /  4.2 °C 30.2 in /  1023.9 hPa Calm   11 mph /  17.7 km/h 56 % 0 in /  0.0 mm
17:27 55 °F /  12.8 °C 39.6 °F /  4.2 °C 30.2 in /  1023.9 hPa North 3 mph /  4.8 km/h 11 mph /  17.7 km/h 56 % 0 in /  0.0 mm
17:32 54.9 °F /  12.7 °C 39 °F /  3.9 °C 30.2 in /  1023.9 hPa WNW 4 mph /  6.4 km/h 11 mph /  17.7 km/h 55 % 0 in /  0.0 mm
17:37 54.7 °F /  12.6 °C 38.8 °F /  3.8 °C 30.2 in /  1023.9 hPa NW 2 mph /  3.2 km/h 11 mph /  17.7 km/h 55 % 0 in /  0.0 mm
17:42 54.7 °F /  12.6 °C 38.8 °F /  3.8 °C 30.2 in /  1023.9 hPa NW 2 mph /  3.2 km/h 11 mph /  17.7 km/h 55 % 0 in /  0.0 mm
17:47 54.7 °F /  12.6 °C 38.8 °F /  3.8 °C 30.2 in /  1023.9 hPa WNW 3 mph /  4.8 km/h 9 mph /  14.5 km/h 55 % 0 in /  0.0 mm
17:52 55.8 °F /  13.2 °C 40.8 °F /  4.9 °C 30.2 in /  1023.9 hPa WNW 6 mph /  9.7 km/h 9 mph /  14.5 km/h 57 % 0 in /  0.0 mm
17:57 56.5 °F /  13.6 °C 39.6 °F /  4.2 °C 30.2 in /  1023.9 hPa WNW 6 mph /  9.7 km/h 8 mph /  12.9 km/h 53 % 0 in /  0.0 mm
18:02 55.9 °F /  13.3 °C 39 °F /  3.9 °C 30.2 in /  1023.9 hPa West 5 mph /  8.0 km/h 8 mph /  12.9 km/h 53 % 0 in /  0.0 mm
18:12 55.2 °F /  12.9 °C 38.3 °F /  3.5 °C 30.2 in /  1023.9 hPa WNW 8 mph /  12.9 km/h 11 mph /  17.7 km/h 53 % 0 in /  0.0 mm
18:22 54.9 °F /  12.7 °C 38.5 °F /  3.6 °C 30.2 in /  1023.9 hPa North 2 mph /  3.2 km/h 10 mph /  16.1 km/h 54 % 0 in /  0.0 mm
18:32 55 °F /  12.8 °C 38.7 °F /  3.7 °C 30.2 in /  1023.9 hPa NW 8 mph /  12.9 km/h 10 mph /  16.1 km/h 54 % 0 in /  0.0 mm
18:37 54.9 °F /  12.7 °C 38.1 °F /  3.4 °C 30.2 in /  1023.9 hPa NW 6 mph /  9.7 km/h 10 mph /  16.1 km/h 53 % 0 in /  0.0 mm
18:47 55 °F /  12.8 °C 38.7 °F /  3.7 °C 30.2 in /  1023.9 hPa NNW 4 mph /  6.4 km/h 11 mph /  17.7 km/h 54 % 0 in /  0.0 mm
18:52 54.9 °F /  12.7 °C 38.1 °F /  3.4 °C 30.2 in /  1023.9 hPa NNW 2 mph /  3.2 km/h 11 mph /  17.7 km/h 53 % 0 in /  0.0 mm
18:57 54.7 °F /  12.6 °C 38.3 °F /  3.5 °C 30.2 in /  1023.9 hPa NNW 3 mph /  4.8 km/h 8 mph /  12.9 km/h 54 % 0 in /  0.0 mm
19:02 54.5 °F /  12.5 °C 38.7 °F /  3.7 °C 30.2 in /  1023.9 hPa West 2 mph /  3.2 km/h 8 mph /  12.9 km/h 55 % 0 in /  0.0 mm
19:07 54.1 °F /  12.3 °C 38.8 °F /  3.8 °C 30.2 in /  1023.9 hPa WNW 6 mph /  9.7 km/h 8 mph /  12.9 km/h 56 % 0 in /  0.0 mm
19:12 54.1 °F /  12.3 °C 39.2 °F /  4.0 °C 30.2 in /  1023.9 hPa WNW 2 mph /  3.2 km/h 9 mph /  14.5 km/h 57 % 0 in /  0.0 mm
19:17 54.1 °F /  12.3 °C 39.2 °F /  4.0 °C 30.2 in /  1023.9 hPa WNW 1 mph /  1.6 km/h 9 mph /  14.5 km/h 57 % 0 in /  0.0 mm
19:22 54.1 °F /  12.3 °C 39.7 °F /  4.3 °C 30.2 in /  1023.9 hPa NW 1 mph /  1.6 km/h 9 mph /  14.5 km/h 58 % 0 in /  0.0 mm
19:27 54.1 °F /  12.3 °C 39.2 °F /  4.0 °C 30.2 in /  1023.9 hPa NW 2 mph /  3.2 km/h 5 mph /  8.0 km/h 57 % 0 in /  0.0 mm
19:32 54.1 °F /  12.3 °C 38.8 °F /  3.8 °C 30.2 in /  1023.9 hPa WNW 2 mph /  3.2 km/h 6 mph /  9.7 km/h 56 % 0 in /  0.0 mm
19:37 54.7 °F /  12.6 °C 39.7 °F /  4.3 °C 30.2 in /  1023.9 hPa NW 6 mph /  9.7 km/h 6 mph /  9.7 km/h 57 % 0 in /  0.0 mm
19:42 55.2 °F /  12.9 °C 39.7 °F /  4.3 °C 30.2 in /  1023.9 hPa West 2 mph /  3.2 km/h 6 mph /  9.7 km/h 56 % 0 in /  0.0 mm
19:47 55.6 °F /  13.1 °C 39.2 °F /  4.0 °C 30.2 in /  1023.9 hPa NW 2 mph /  3.2 km/h 6 mph /  9.7 km/h 54 % 0 in /  0.0 mm
19:52 55.8 °F /  13.2 °C 38.8 °F /  3.8 °C 30.2 in /  1023.9 hPa WNW 7 mph /  11.3 km/h 7 mph /  11.3 km/h 53 % 0 in /  0.0 mm
19:57 55.6 °F /  13.1 °C 38.7 °F /  3.7 °C 30.2 in /  1023.9 hPa NW 2 mph /  3.2 km/h 9 mph /  14.5 km/h 53 % 0 in /  0.0 mm
20:02 55 °F /  12.8 °C 38.3 °F /  3.5 °C 30.2 in /  1023.9 hPa WNW 1 mph /  1.6 km/h 9 mph /  14.5 km/h 53 % 0 in /  0.0 mm
20:07 54.7 °F /  12.6 °C 38.3 °F /  3.5 °C 30.2 in /  1023.9 hPa NNW 3 mph /  4.8 km/h 9 mph /  14.5 km/h 54 % 0 in /  0.0 mm
20:12 54.1 °F /  12.3 °C 38.3 °F /  3.5 °C 30.2 in /  1023.9 hPa WNW 2 mph /  3.2 km/h 8 mph /  12.9 km/h 55 % 0 in /  0.0 mm
20:17 53.8 °F /  12.1 °C 38.5 °F /  3.6 °C 30.2 in /  1023.9 hPa WNW 2 mph /  3.2 km/h 7 mph /  11.3 km/h 56 % 0 in /  0.0 mm
20:22 53.2 °F /  11.8 °C 38.5 °F /  3.6 °C 30.2 in /  1023.9 hPa WNW 3 mph /  4.8 km/h 4 mph /  6.4 km/h 57 % 0 in /  0.0 mm
20:27 52.9 °F /  11.6 °C 38.5 °F /  3.6 °C 30.2 in /  1023.9 hPa WNW 3 mph /  4.8 km/h 4 mph /  6.4 km/h 58 % 0 in /  0.0 mm
20:32 52.3 °F /  11.3 °C 38.5 °F /  3.6 °C 30.2 in /  1023.9 hPa WNW 1 mph /  1.6 km/h 4 mph /  6.4 km/h 59 % 0 in /  0.0 mm
20:37 52.2 °F /  11.2 °C 38.7 °F /  3.7 °C 30.2 in /  1023.9 hPa WSW 2 mph /  3.2 km/h 4 mph /  6.4 km/h 60 % 0 in /  0.0 mm
20:42 52 °F /  11.1 °C 39 °F /  3.9 °C 30.2 in /  1023.9 hPa WNW 4 mph /  6.4 km/h 4 mph /  6.4 km/h 61 % 0 in /  0.0 mm
20:47 51.4 °F /  10.8 °C 38.5 °F /  3.6 °C 30.3 in /  1024.3 hPa WNW 3 mph /  4.8 km/h 4 mph /  6.4 km/h 61 % 0 in /  0.0 mm
20:52 51.1 °F /  10.6 °C 38.5 °F /  3.6 °C 30.3 in /  1024.3 hPa WNW 3 mph /  4.8 km/h 4 mph /  6.4 km/h 62 % 0 in /  0.0 mm
20:57 50.7 °F /  10.4 °C 38.7 °F /  3.7 °C 30.3 in /  1024.3 hPa WNW 1 mph /  1.6 km/h 4 mph /  6.4 km/h 63 % 0 in /  0.0 mm
21:02 50.5 °F /  10.3 °C 38.8 °F /  3.8 °C 30.3 in /  1024.3 hPa WNW 2 mph /  3.2 km/h 4 mph /  6.4 km/h 64 % 0 in /  0.0 mm
21:07 50.4 °F /  10.2 °C 38.7 °F /  3.7 °C 30.3 in /  1024.3 hPa WNW 1 mph /  1.6 km/h 3 mph /  4.8 km/h 64 % 0 in /  0.0 mm
21:12 50.4 °F /  10.2 °C 38.7 °F /  3.7 °C 30.3 in /  1024.3 hPa Calm   3 mph /  4.8 km/h 64 % 0 in /  0.0 mm
21:17 50.2 °F /  10.1 °C 38.8 °F /  3.8 °C 30.3 in /  1024.3 hPa WNW 1 mph /  1.6 km/h 3 mph /  4.8 km/h 65 % 0 in /  0.0 mm
21:22 49.6 °F /  9.8 °C 38.7 °F /  3.7 °C 30.3 in /  1024.3 hPa Calm   2 mph /  3.2 km/h 66 % 0 in /  0.0 mm
21:27 49.1 °F /  9.5 °C 39 °F /  3.9 °C 30.3 in /  1024.3 hPa Calm   1 mph /  1.6 km/h 68 % 0 in /  0.0 mm
21:32 48.2 °F /  9.0 °C 38.8 °F /  3.8 °C 30.3 in /  1024.3 hPa Calm   1 mph /  1.6 km/h 70 % 0 in /  0.0 mm
21:42 46.8 °F /  8.2 °C 38.8 °F /  3.8 °C 30.3 in /  1024.3 hPa Calm   1 mph /  1.6 km/h 74 % 0 in /  0.0 mm
21:47 46.6 °F /  8.1 °C 38.7 °F /  3.7 °C 30.3 in /  1024.3 hPa Calm     74 % 0 in /  0.0 mm
21:52 46.6 °F /  8.1 °C 38.5 °F /  3.6 °C 30.3 in /  1024.3 hPa Calm     73 % 0 in /  0.0 mm
21:57 46.6 °F /  8.1 °C 38.5 °F /  3.6 °C 30.3 in /  1024.3 hPa Calm     73 % 0 in /  0.0 mm
22:02 46.8 °F /  8.2 °C 38.5 °F /  3.6 °C 30.3 in /  1024.3 hPa Calm   1 mph /  1.6 km/h 73 % 0 in /  0.0 mm
22:07 46.6 °F /  8.1 °C 38.5 °F /  3.6 °C 30.3 in /  1024.6 hPa Calm   1 mph /  1.6 km/h 73 % 0 in /  0.0 mm
22:12 46 °F /  7.8 °C 38.3 °F /  3.5 °C 30.3 in /  1024.6 hPa Calm   1 mph /  1.6 km/h 74 % 0 in /  0.0 mm
22:17 45.5 °F /  7.5 °C 38.1 °F /  3.4 °C 30.3 in /  1024.3 hPa Calm   1 mph /  1.6 km/h 75 % 0 in /  0.0 mm
22:22 45 °F /  7.2 °C 38.1 °F /  3.4 °C 30.3 in /  1024.6 hPa Calm   1 mph /  1.6 km/h 77 % 0 in /  0.0 mm
22:32 44.4 °F /  6.9 °C 37.9 °F /  3.3 °C 30.3 in /  1024.6 hPa Calm   1 mph /  1.6 km/h 78 % 0 in /  0.0 mm
22:37 44.6 °F /  7.0 °C 38.1 °F /  3.4 °C 30.3 in /  1024.6 hPa Calm   1 mph /  1.6 km/h 78 % 0 in /  0.0 mm
22:42 44.8 °F /  7.1 °C 37.9 °F /  3.3 °C 30.3 in /  1024.6 hPa Calm   1 mph /  1.6 km/h 77 % 0 in /  0.0 mm
22:47 44.8 °F /  7.1 °C 37.9 °F /  3.3 °C 30.3 in /  1024.6 hPa Calm   1 mph /  1.6 km/h 77 % 0 in /  0.0 mm
22:52 44.8 °F /  7.1 °C 37.9 °F /  3.3 °C 30.3 in /  1024.6 hPa Calm   1 mph /  1.6 km/h 77 % 0 in /  0.0 mm
22:57 44.6 °F /  7.0 °C 37.8 °F /  3.2 °C 30.3 in /  1024.6 hPa Calm   1 mph /  1.6 km/h 77 % 0 in /  0.0 mm
23:02 44.6 °F /  7.0 °C 37.8 °F /  3.2 °C 30.3 in /  1024.6 hPa West 1 mph /  1.6 km/h 1 mph /  1.6 km/h 77 % 0 in /  0.0 mm
23:07 44.4 °F /  6.9 °C 37.6 °F /  3.1 °C 30.3 in /  1024.6 hPa Calm   1 mph /  1.6 km/h 77 % 0 in /  0.0 mm
23:12 44.2 °F /  6.8 °C 37.8 °F /  3.2 °C 30.3 in /  1024.6 hPa Calm   2 mph /  3.2 km/h 78 % 0 in /  0.0 mm
23:17 44.2 °F /  6.8 °C 37.8 °F /  3.2 °C 30.3 in /  1024.6 hPa Calm   2 mph /  3.2 km/h 78 % 0 in /  0.0 mm
23:22 44.1 °F /  6.7 °C 37.9 °F /  3.3 °C 30.3 in /  1024.6 hPa Calm   1 mph /  1.6 km/h 79 % 0 in /  0.0 mm
23:32 44.4 °F /  6.9 °C 37.9 °F /  3.3 °C 30.3 in /  1024.6 hPa Calm   1 mph /  1.6 km/h 78 % 0 in /  0.0 mm
23:37 44.6 °F /  7.0 °C 38.1 °F /  3.4 °C 30.3 in /  1024.3 hPa Calm   1 mph /  1.6 km/h 78 % 0 in /  0.0 mm
23:42 44.8 °F /  7.1 °C 37.9 °F /  3.3 °C 30.3 in /  1024.6 hPa Calm   1 mph /  1.6 km/h 77 % 0 in /  0.0 mm
23:47 45 °F /  7.2 °C 38.5 °F /  3.6 °C 30.3 in /  1024.6 hPa Calm   1 mph /  1.6 km/h 78 % 0 in /  0.0 mm
23:52 45 °F /  7.2 °C 38.5 °F /  3.6 °C 30.3 in /  1024.6 hPa Calm   1 mph /  1.6 km/h 78 % 0 in /  0.0 mm
23:57 44.8 °F /  7.1 °C 38.7 °F /  3.7 °C 30.3 in /  1024.3 hPa Calm   1 mph /  1.6 km/h 79 % 0 in /  0.0 mm
Meteo18
Compliments of Weather Underground - 4 mb

Script developed by  Jim McMurry - jmcmurry@mwt.net Adapted for the template by  Wim van der Kuil - Leuven-Template.eu

You find our weather info also at:

European Weather Network

Weather Underground

Equipment we use:

Weather-station
Davis Vue

Weather-program
Meteohub

Weather-server
Raspberry PI 2 B+

Provider
1 and 1

Davis Vue

Meteohub

Raspberry PI 2 B+

1 and 1